sensor_id;sensor_type;location;lat;lon;timestamp;P1;durP1;ratioP1;P2;durP2;ratioP2
51987;SDS011;38003;52.012;4.346;2023-03-23T00:00:56;9.30;;;7.93;;
51987;SDS011;38003;52.012;4.346;2023-03-23T00:03:23;8.17;;;7.37;;
51987;SDS011;38003;52.012;4.346;2023-03-23T00:05:51;8.17;;;7.47;;
51987;SDS011;38003;52.012;4.346;2023-03-23T00:08:19;10.20;;;6.90;;
51987;SDS011;38003;52.012;4.346;2023-03-23T00:10:50;6.90;;;6.17;;
51987;SDS011;38003;52.012;4.346;2023-03-23T00:13:17;7.80;;;7.03;;
51987;SDS011;38003;52.012;4.346;2023-03-23T00:15:45;7.87;;;7.07;;
51987;SDS011;38003;52.012;4.346;2023-03-23T00:18:14;6.83;;;6.03;;
51987;SDS011;38003;52.012;4.346;2023-03-23T00:20:46;6.33;;;5.83;;
51987;SDS011;38003;52.012;4.346;2023-03-23T00:23:14;7.73;;;6.93;;
51987;SDS011;38003;52.012;4.346;2023-03-23T00:25:45;6.83;;;6.27;;
51987;SDS011;38003;52.012;4.346;2023-03-23T00:28:13;11.17;;;6.03;;
51987;SDS011;38003;52.012;4.346;2023-03-23T00:30:40;8.97;;;5.43;;
51987;SDS011;38003;52.012;4.346;2023-03-23T00:33:10;6.10;;;5.57;;
51987;SDS011;38003;52.012;4.346;2023-03-23T00:35:38;6.43;;;5.97;;
51987;SDS011;38003;52.012;4.346;2023-03-23T00:38:05;6.83;;;5.83;;
51987;SDS011;38003;52.012;4.346;2023-03-23T00:40:33;6.87;;;6.17;;
51987;SDS011;38003;52.012;4.346;2023-03-23T00:43:03;5.87;;;5.33;;
51987;SDS011;38003;52.012;4.346;2023-03-23T00:45:30;6.47;;;5.17;;
51987;SDS011;38003;52.012;4.346;2023-03-23T00:48:00;5.80;;;5.30;;
51987;SDS011;38003;52.012;4.346;2023-03-23T00:50:29;8.33;;;4.60;;
51987;SDS011;38003;52.012;4.346;2023-03-23T00:52:56;7.60;;;5.30;;
51987;SDS011;38003;52.012;4.346;2023-03-23T00:55:24;6.37;;;5.03;;
51987;SDS011;38003;52.012;4.346;2023-03-23T00:57:51;6.13;;;4.93;;
51987;SDS011;38003;52.012;4.346;2023-03-23T01:00:20;7.33;;;5.17;;
51987;SDS011;38003;52.012;4.346;2023-03-23T01:02:48;5.97;;;4.90;;
51987;SDS011;38003;52.012;4.346;2023-03-23T01:05:16;4.63;;;3.90;;
51987;SDS011;38003;52.012;4.346;2023-03-23T01:07:43;5.77;;;4.90;;
51987;SDS011;38003;52.012;4.346;2023-03-23T01:10:11;6.63;;;5.90;;
51987;SDS011;38003;52.012;4.346;2023-03-23T01:12:41;7.53;;;5.17;;
51987;SDS011;38003;52.012;4.346;2023-03-23T01:15:09;7.43;;;5.17;;
51987;SDS011;38003;52.012;4.346;2023-03-23T01:17:39;8.13;;;5.13;;
51987;SDS011;38003;52.012;4.346;2023-03-23T01:20:06;5.07;;;4.60;;
51987;SDS011;38003;52.012;4.346;2023-03-23T01:22:35;4.70;;;4.20;;
51987;SDS011;38003;52.012;4.346;2023-03-23T01:25:02;4.40;;;3.93;;
51987;SDS011;38003;52.012;4.346;2023-03-23T01:27:29;5.10;;;4.60;;
51987;SDS011;38003;52.012;4.346;2023-03-23T01:29:56;4.33;;;3.90;;
51987;SDS011;38003;52.012;4.346;2023-03-23T01:32:24;4.53;;;3.70;;
51987;SDS011;38003;52.012;4.346;2023-03-23T01:34:52;5.00;;;4.47;;
51987;SDS011;38003;52.012;4.346;2023-03-23T01:37:19;6.13;;;5.47;;
51987;SDS011;38003;52.012;4.346;2023-03-23T01:39:51;6.50;;;4.83;;
51987;SDS011;38003;52.012;4.346;2023-03-23T01:42:18;6.40;;;5.23;;
51987;SDS011;38003;52.012;4.346;2023-03-23T01:47:33;5.60;;;5.10;;
51987;SDS011;38003;52.012;4.346;2023-03-23T01:50:02;5.27;;;4.87;;
51987;SDS011;38003;52.012;4.346;2023-03-23T01:52:29;4.97;;;4.60;;
51987;SDS011;38003;52.012;4.346;2023-03-23T01:54:58;5.40;;;5.00;;
51987;SDS011;38003;52.012;4.346;2023-03-23T01:57:26;6.70;;;5.37;;
51987;SDS011;38003;52.012;4.346;2023-03-23T01:59:55;6.60;;;5.90;;
51987;SDS011;38003;52.012;4.346;2023-03-23T02:02:25;7.80;;;6.80;;
51987;SDS011;38003;52.012;4.346;2023-03-23T02:04:54;8.80;;;8.10;;
51987;SDS011;38003;52.012;4.346;2023-03-23T02:07:23;8.27;;;7.67;;
51987;SDS011;38003;52.012;4.346;2023-03-23T02:09:51;8.00;;;7.50;;
51987;SDS011;38003;52.012;4.346;2023-03-23T02:12:18;9.67;;;8.97;;
51987;SDS011;38003;52.012;4.346;2023-03-23T02:14:45;8.00;;;7.40;;
51987;SDS011;38003;52.012;4.346;2023-03-23T02:17:14;9.20;;;8.40;;
51987;SDS011;38003;52.012;4.346;2023-03-23T02:19:55;7.43;;;6.93;;
51987;SDS011;38003;52.012;4.346;2023-03-23T02:22:54;8.53;;;7.80;;
51987;SDS011;38003;52.012;4.346;2023-03-23T02:25:33;7.50;;;6.90;;
51987;SDS011;38003;52.012;4.346;2023-03-23T02:30:58;8.77;;;7.80;;
51987;SDS011;38003;52.012;4.346;2023-03-23T02:33:36;8.57;;;7.90;;
51987;SDS011;38003;52.012;4.346;2023-03-23T02:36:09;8.57;;;7.97;;
51987;SDS011;38003;52.012;4.346;2023-03-23T02:38:38;8.37;;;7.63;;
51987;SDS011;38003;52.012;4.346;2023-03-23T02:41:07;8.47;;;7.73;;
51987;SDS011;38003;52.012;4.346;2023-03-23T02:43:36;7.93;;;7.33;;
51987;SDS011;38003;52.012;4.346;2023-03-23T02:46:05;8.33;;;7.53;;
51987;SDS011;38003;52.012;4.346;2023-03-23T02:48:34;8.30;;;7.10;;
51987;SDS011;38003;52.012;4.346;2023-03-23T02:51:04;8.60;;;7.93;;
51987;SDS011;38003;52.012;4.346;2023-03-23T02:53:33;7.50;;;6.77;;
51987;SDS011;38003;52.012;4.346;2023-03-23T02:56:01;6.87;;;6.33;;
51987;SDS011;38003;52.012;4.346;2023-03-23T02:58:30;8.67;;;7.87;;
51987;SDS011;38003;52.012;4.346;2023-03-23T03:00:57;8.93;;;8.33;;
51987;SDS011;38003;52.012;4.346;2023-03-23T03:03:26;11.87;;;11.10;;
51987;SDS011;38003;52.012;4.346;2023-03-23T03:05:57;14.77;;;13.57;;
51987;SDS011;38003;52.012;4.346;2023-03-23T03:08:28;20.50;;;19.23;;
51987;SDS011;38003;52.012;4.346;2023-03-23T03:10:57;23.07;;;21.57;;
51987;SDS011;38003;52.012;4.346;2023-03-23T03:13:30;23.03;;;21.43;;
51987;SDS011;38003;52.012;4.346;2023-03-23T03:15:59;26.30;;;24.77;;
51987;SDS011;38003;52.012;4.346;2023-03-23T03:18:31;39.53;;;37.23;;
51987;SDS011;38003;52.012;4.346;2023-03-23T03:21:02;55.40;;;52.70;;
51987;SDS011;38003;52.012;4.346;2023-03-23T03:23:32;79.70;;;76.10;;
51987;SDS011;38003;52.012;4.346;2023-03-23T03:26:00;100.97;;;96.57;;
51987;SDS011;38003;52.012;4.346;2023-03-23T03:28:29;122.10;;;116.97;;
51987;SDS011;38003;52.012;4.346;2023-03-23T03:30:57;129.60;;;124.00;;
51987;SDS011;38003;52.012;4.346;2023-03-23T03:33:26;142.37;;;136.50;;
51987;SDS011;38003;52.012;4.346;2023-03-23T03:35:56;181.80;;;174.63;;
51987;SDS011;38003;52.012;4.346;2023-03-23T03:38:24;221.47;;;212.93;;
51987;SDS011;38003;52.012;4.346;2023-03-23T03:40:52;217.70;;;209.33;;
51987;SDS011;38003;52.012;4.346;2023-03-23T03:43:20;240.50;;;230.83;;
51987;SDS011;38003;52.012;4.346;2023-03-23T03:45:47;222.60;;;214.00;;
51987;SDS011;38003;52.012;4.346;2023-03-23T03:48:14;255.77;;;246.23;;
51987;SDS011;38003;52.012;4.346;2023-03-23T03:50:41;275.00;;;264.97;;
51987;SDS011;38003;52.012;4.346;2023-03-23T03:53:08;335.83;;;323.57;;
51987;SDS011;38003;52.012;4.346;2023-03-23T03:55:35;411.63;;;396.77;;
51987;SDS011;38003;52.012;4.346;2023-03-23T03:58:04;382.57;;;368.77;;
51987;SDS011;38003;52.012;4.346;2023-03-23T04:00:33;378.07;;;363.90;;
51987;SDS011;38003;52.012;4.346;2023-03-23T04:03:00;338.93;;;326.73;;
51987;SDS011;38003;52.012;4.346;2023-03-23T04:05:27;416.40;;;401.27;;
51987;SDS011;38003;52.012;4.346;2023-03-23T04:07:55;403.23;;;388.47;;
51987;SDS011;38003;52.012;4.346;2023-03-23T04:10:26;398.40;;;383.83;;
51987;SDS011;38003;52.012;4.346;2023-03-23T04:12:54;359.73;;;346.47;;
51987;SDS011;38003;52.012;4.346;2023-03-23T04:15:23;316.03;;;304.33;;
51987;SDS011;38003;52.012;4.346;2023-03-23T04:17:50;334.53;;;321.97;;
51987;SDS011;38003;52.012;4.346;2023-03-23T04:20:17;321.37;;;309.50;;
51987;SDS011;38003;52.012;4.346;2023-03-23T04:22:45;300.70;;;289.47;;
51987;SDS011;38003;52.012;4.346;2023-03-23T04:25:14;249.80;;;239.93;;
51987;SDS011;38003;52.012;4.346;2023-03-23T04:27:42;268.63;;;258.17;;
51987;SDS011;38003;52.012;4.346;2023-03-23T04:30:11;274.90;;;264.17;;
51987;SDS011;38003;52.012;4.346;2023-03-23T04:32:40;293.40;;;282.13;;
51987;SDS011;38003;52.012;4.346;2023-03-23T04:35:08;232.77;;;223.47;;
51987;SDS011;38003;52.012;4.346;2023-03-23T04:37:37;228.13;;;218.37;;
51987;SDS011;38003;52.012;4.346;2023-03-23T04:40:04;219.83;;;211.03;;
51987;SDS011;38003;52.012;4.346;2023-03-23T04:42:36;202.53;;;193.37;;
51987;SDS011;38003;52.012;4.346;2023-03-23T04:45:04;196.27;;;188.20;;
51987;SDS011;38003;52.012;4.346;2023-03-23T04:47:32;187.40;;;179.50;;
51987;SDS011;38003;52.012;4.346;2023-03-23T04:50:06;169.77;;;162.30;;
51987;SDS011;38003;52.012;4.346;2023-03-23T04:52:34;176.07;;;168.57;;
51987;SDS011;38003;52.012;4.346;2023-03-23T04:55:03;134.83;;;128.67;;
51987;SDS011;38003;52.012;4.346;2023-03-23T04:57:30;139.50;;;132.83;;
51987;SDS011;38003;52.012;4.346;2023-03-23T04:59:58;144.10;;;137.13;;
51987;SDS011;38003;52.012;4.346;2023-03-23T05:02:25;125.40;;;119.17;;
51987;SDS011;38003;52.012;4.346;2023-03-23T05:04:55;122.93;;;116.63;;
51987;SDS011;38003;52.012;4.346;2023-03-23T05:07:24;148.77;;;141.73;;
51987;SDS011;38003;52.012;4.346;2023-03-23T05:09:51;174.20;;;166.27;;
51987;SDS011;38003;52.012;4.346;2023-03-23T05:12:19;224.80;;;215.10;;
51987;SDS011;38003;52.012;4.346;2023-03-23T05:14:46;282.60;;;271.60;;
51987;SDS011;38003;52.012;4.346;2023-03-23T05:17:13;273.73;;;263.17;;
51987;SDS011;38003;52.012;4.346;2023-03-23T05:19:42;312.13;;;299.47;;
51987;SDS011;38003;52.012;4.346;2023-03-23T05:22:12;359.13;;;345.03;;
51987;SDS011;38003;52.012;4.346;2023-03-23T05:24:40;389.13;;;374.50;;
51987;SDS011;38003;52.012;4.346;2023-03-23T05:27:09;396.00;;;381.03;;
51987;SDS011;38003;52.012;4.346;2023-03-23T05:29:36;383.03;;;368.80;;
51987;SDS011;38003;52.012;4.346;2023-03-23T05:32:06;408.43;;;392.67;;
51987;SDS011;38003;52.012;4.346;2023-03-23T05:34:33;445.57;;;428.97;;
51987;SDS011;38003;52.012;4.346;2023-03-23T05:37:01;425.37;;;408.93;;
51987;SDS011;38003;52.012;4.346;2023-03-23T05:39:28;390.67;;;375.57;;
51987;SDS011;38003;52.012;4.346;2023-03-23T05:41:57;400.87;;;385.17;;
51987;SDS011;38003;52.012;4.346;2023-03-23T05:44:24;369.37;;;355.27;;
51987;SDS011;38003;52.012;4.346;2023-03-23T05:46:52;327.67;;;314.43;;
51987;SDS011;38003;52.012;4.346;2023-03-23T05:49:19;287.50;;;275.73;;
51987;SDS011;38003;52.012;4.346;2023-03-23T05:51:46;288.00;;;276.00;;
51987;SDS011;38003;52.012;4.346;2023-03-23T05:54:15;249.53;;;239.03;;
51987;SDS011;38003;52.012;4.346;2023-03-23T05:56:43;243.93;;;233.27;;
51987;SDS011;38003;52.012;4.346;2023-03-23T05:59:12;244.50;;;233.93;;
51987;SDS011;38003;52.012;4.346;2023-03-23T06:01:39;214.87;;;205.70;;
51987;SDS011;38003;52.012;4.346;2023-03-23T06:04:06;180.80;;;172.00;;
51987;SDS011;38003;52.012;4.346;2023-03-23T06:06:34;154.00;;;146.53;;
51987;SDS011;38003;52.012;4.346;2023-03-23T06:09:02;109.00;;;103.57;;
51987;SDS011;38003;52.012;4.346;2023-03-23T06:11:29;82.90;;;77.90;;
51987;SDS011;38003;52.012;4.346;2023-03-23T06:13:56;79.53;;;74.47;;
51987;SDS011;38003;52.012;4.346;2023-03-23T06:16:24;90.73;;;85.50;;
51987;SDS011;38003;52.012;4.346;2023-03-23T06:18:52;75.27;;;70.20;;
51987;SDS011;38003;52.012;4.346;2023-03-23T06:21:19;60.13;;;56.13;;
51987;SDS011;38003;52.012;4.346;2023-03-23T06:23:47;61.03;;;57.07;;
51987;SDS011;38003;52.012;4.346;2023-03-23T06:26:15;56.50;;;52.90;;
51987;SDS011;38003;52.012;4.346;2023-03-23T06:28:43;55.03;;;50.60;;
51987;SDS011;38003;52.012;4.346;2023-03-23T06:31:10;39.63;;;36.47;;
51987;SDS011;38003;52.012;4.346;2023-03-23T06:33:41;32.37;;;29.67;;
51987;SDS011;38003;52.012;4.346;2023-03-23T06:36:09;35.87;;;32.77;;
51987;SDS011;38003;52.012;4.346;2023-03-23T06:38:37;39.47;;;36.70;;
51987;SDS011;38003;52.012;4.346;2023-03-23T06:41:04;32.83;;;29.87;;
51987;SDS011;38003;52.012;4.346;2023-03-23T06:43:32;22.00;;;19.73;;
51987;SDS011;38003;52.012;4.346;2023-03-23T06:46:01;22.90;;;19.23;;
51987;SDS011;38003;52.012;4.346;2023-03-23T06:48:28;19.87;;;18.10;;
51987;SDS011;38003;52.012;4.346;2023-03-23T06:50:56;18.70;;;16.97;;
51987;SDS011;38003;52.012;4.346;2023-03-23T06:53:24;18.07;;;16.20;;
51987;SDS011;38003;52.012;4.346;2023-03-23T06:55:51;18.37;;;16.47;;
51987;SDS011;38003;52.012;4.346;2023-03-23T06:58:18;13.60;;;10.40;;
51987;SDS011;38003;52.012;4.346;2023-03-23T07:00:46;17.77;;;8.93;;
51987;SDS011;38003;52.012;4.346;2023-03-23T07:03:14;14.37;;;7.07;;
51987;SDS011;38003;52.012;4.346;2023-03-23T07:05:41;15.90;;;10.70;;
51987;SDS011;38003;52.012;4.346;2023-03-23T07:08:10;16.67;;;11.97;;
51987;SDS011;38003;52.012;4.346;2023-03-23T07:10:37;15.53;;;8.00;;
51987;SDS011;38003;52.012;4.346;2023-03-23T07:13:04;12.43;;;6.80;;
51987;SDS011;38003;52.012;4.346;2023-03-23T07:15:31;16.67;;;8.90;;
51987;SDS011;38003;52.012;4.346;2023-03-23T07:17:58;13.60;;;7.00;;
51987;SDS011;38003;52.012;4.346;2023-03-23T07:20:26;12.07;;;7.00;;
51987;SDS011;38003;52.012;4.346;2023-03-23T07:22:53;14.23;;;6.50;;
51987;SDS011;38003;52.012;4.346;2023-03-23T07:25:21;12.40;;;7.33;;
51987;SDS011;38003;52.012;4.346;2023-03-23T07:27:49;11.27;;;7.30;;
51987;SDS011;38003;52.012;4.346;2023-03-23T07:30:16;12.03;;;8.03;;
51987;SDS011;38003;52.012;4.346;2023-03-23T07:32:43;14.80;;;10.37;;
51987;SDS011;38003;52.012;4.346;2023-03-23T07:35:10;17.53;;;11.87;;
51987;SDS011;38003;52.012;4.346;2023-03-23T07:37:38;14.83;;;13.43;;
51987;SDS011;38003;52.012;4.346;2023-03-23T07:40:05;19.50;;;16.83;;
51987;SDS011;38003;52.012;4.346;2023-03-23T07:42:41;18.97;;;16.93;;
51987;SDS011;38003;52.012;4.346;2023-03-23T07:45:09;22.93;;;21.10;;
51987;SDS011;38003;52.012;4.346;2023-03-23T07:47:36;19.37;;;17.63;;
51987;SDS011;38003;52.012;4.346;2023-03-23T07:50:04;19.40;;;17.37;;
51987;SDS011;38003;52.012;4.346;2023-03-23T07:52:31;17.60;;;13.80;;
51987;SDS011;38003;52.012;4.346;2023-03-23T07:54:59;11.07;;;10.10;;
51987;SDS011;38003;52.012;4.346;2023-03-23T07:57:27;16.73;;;13.67;;
51987;SDS011;38003;52.012;4.346;2023-03-23T07:59:56;20.33;;;14.03;;
51987;SDS011;38003;52.012;4.346;2023-03-23T08:02:23;18.27;;;14.20;;
51987;SDS011;38003;52.012;4.346;2023-03-23T08:04:51;17.60;;;16.10;;
51987;SDS011;38003;52.012;4.346;2023-03-23T08:07:19;16.67;;;13.43;;
51987;SDS011;38003;52.012;4.346;2023-03-23T08:09:46;14.73;;;12.20;;
51987;SDS011;38003;52.012;4.346;2023-03-23T08:12:14;16.10;;;11.10;;
51987;SDS011;38003;52.012;4.346;2023-03-23T08:14:42;13.43;;;10.23;;
51987;SDS011;38003;52.012;4.346;2023-03-23T08:17:10;16.23;;;12.80;;
51987;SDS011;38003;52.012;4.346;2023-03-23T08:19:37;20.90;;;13.33;;
51987;SDS011;38003;52.012;4.346;2023-03-23T08:22:05;18.20;;;15.03;;
51987;SDS011;38003;52.012;4.346;2023-03-23T08:24:32;20.70;;;18.50;;
51987;SDS011;38003;52.012;4.346;2023-03-23T08:27:00;21.20;;;14.07;;
51987;SDS011;38003;52.012;4.346;2023-03-23T08:29:27;15.50;;;13.07;;
51987;SDS011;38003;52.012;4.346;2023-03-23T08:31:54;17.97;;;16.23;;
51987;SDS011;38003;52.012;4.346;2023-03-23T08:34:25;15.50;;;12.73;;
51987;SDS011;38003;52.012;4.346;2023-03-23T08:36:52;15.40;;;8.47;;
51987;SDS011;38003;52.012;4.346;2023-03-23T08:39:20;13.97;;;9.33;;
51987;SDS011;38003;52.012;4.346;2023-03-23T08:41:48;17.63;;;7.43;;
51987;SDS011;38003;52.012;4.346;2023-03-23T08:44:15;16.60;;;6.67;;
51987;SDS011;38003;52.012;4.346;2023-03-23T08:46:42;12.43;;;4.83;;
51987;SDS011;38003;52.012;4.346;2023-03-23T08:49:09;9.83;;;4.17;;
51987;SDS011;38003;52.012;4.346;2023-03-23T08:51:38;12.70;;;4.63;;
51987;SDS011;38003;52.012;4.346;2023-03-23T08:54:07;13.03;;;4.20;;
51987;SDS011;38003;52.012;4.346;2023-03-23T08:56:34;16.90;;;4.40;;
51987;SDS011;38003;52.012;4.346;2023-03-23T08:59:01;16.00;;;3.77;;
51987;SDS011;38003;52.012;4.346;2023-03-23T09:01:29;14.13;;;4.03;;
51987;SDS011;38003;52.012;4.346;2023-03-23T09:03:57;16.40;;;3.87;;
51987;SDS011;38003;52.012;4.346;2023-03-23T09:06:24;12.73;;;3.33;;
51987;SDS011;38003;52.012;4.346;2023-03-23T09:08:54;12.87;;;3.67;;
51987;SDS011;38003;52.012;4.346;2023-03-23T09:11:21;15.17;;;3.30;;
51987;SDS011;38003;52.012;4.346;2023-03-23T09:13:48;16.83;;;3.93;;
51987;SDS011;38003;52.012;4.346;2023-03-23T09:16:15;13.93;;;3.30;;
51987;SDS011;38003;52.012;4.346;2023-03-23T09:18:43;12.00;;;3.20;;
51987;SDS011;38003;52.012;4.346;2023-03-23T09:21:11;14.20;;;3.80;;
51987;SDS011;38003;52.012;4.346;2023-03-23T09:23:38;13.97;;;4.17;;
51987;SDS011;38003;52.012;4.346;2023-03-23T09:26:10;14.27;;;3.77;;
51987;SDS011;38003;52.012;4.346;2023-03-23T09:28:37;14.80;;;3.30;;
51987;SDS011;38003;52.012;4.346;2023-03-23T09:31:05;19.87;;;5.23;;
51987;SDS011;38003;52.012;4.346;2023-03-23T09:33:32;18.73;;;3.77;;
51987;SDS011;38003;52.012;4.346;2023-03-23T09:36:00;19.77;;;3.57;;
51987;SDS011;38003;52.012;4.346;2023-03-23T09:38:29;14.77;;;3.73;;
51987;SDS011;38003;52.012;4.346;2023-03-23T09:41:00;14.77;;;3.60;;
51987;SDS011;38003;52.012;4.346;2023-03-23T09:43:32;15.90;;;3.37;;
51987;SDS011;38003;52.012;4.346;2023-03-23T09:46:05;14.73;;;3.20;;
51987;SDS011;38003;52.012;4.346;2023-03-23T09:48:38;12.43;;;3.20;;
51987;SDS011;38003;52.012;4.346;2023-03-23T09:51:09;17.30;;;3.20;;
51987;SDS011;38003;52.012;4.346;2023-03-23T09:53:38;15.47;;;3.60;;
51987;SDS011;38003;52.012;4.346;2023-03-23T09:56:09;15.93;;;4.30;;
51987;SDS011;38003;52.012;4.346;2023-03-23T09:58:40;12.00;;;3.07;;
51987;SDS011;38003;52.012;4.346;2023-03-23T10:01:13;14.77;;;3.20;;
51987;SDS011;38003;52.012;4.346;2023-03-23T10:03:42;16.93;;;3.67;;
51987;SDS011;38003;52.012;4.346;2023-03-23T10:06:10;15.33;;;3.10;;
51987;SDS011;38003;52.012;4.346;2023-03-23T10:08:39;14.10;;;3.20;;
51987;SDS011;38003;52.012;4.346;2023-03-23T10:11:09;14.67;;;4.03;;
51987;SDS011;38003;52.012;4.346;2023-03-23T10:13:47;13.03;;;3.73;;
51987;SDS011;38003;52.012;4.346;2023-03-23T10:16:19;18.73;;;3.77;;
51987;SDS011;38003;52.012;4.346;2023-03-23T10:18:47;17.83;;;3.27;;
51987;SDS011;38003;52.012;4.346;2023-03-23T10:21:17;19.60;;;3.53;;
51987;SDS011;38003;52.012;4.346;2023-03-23T10:23:49;16.07;;;3.83;;
51987;SDS011;38003;52.012;4.346;2023-03-23T10:26:24;17.60;;;3.87;;
51987;SDS011;38003;52.012;4.346;2023-03-23T10:28:54;13.30;;;3.33;;
51987;SDS011;38003;52.012;4.346;2023-03-23T10:31:23;18.93;;;3.90;;
51987;SDS011;38003;52.012;4.346;2023-03-23T10:33:52;17.33;;;3.90;;
51987;SDS011;38003;52.012;4.346;2023-03-23T10:36:21;14.23;;;3.40;;
51987;SDS011;38003;52.012;4.346;2023-03-23T10:38:53;18.53;;;4.00;;
51987;SDS011;38003;52.012;4.346;2023-03-23T10:41:23;14.10;;;3.53;;
51987;SDS011;38003;52.012;4.346;2023-03-23T10:43:51;17.67;;;3.30;;
51987;SDS011;38003;52.012;4.346;2023-03-23T10:46:31;15.40;;;4.40;;
51987;SDS011;38003;52.012;4.346;2023-03-23T10:49:04;15.90;;;3.57;;
51987;SDS011;38003;52.012;4.346;2023-03-23T10:51:35;18.77;;;3.53;;
51987;SDS011;38003;52.012;4.346;2023-03-23T10:54:04;19.57;;;4.30;;
51987;SDS011;38003;52.012;4.346;2023-03-23T10:56:36;16.93;;;4.03;;
51987;SDS011;38003;52.012;4.346;2023-03-23T10:59:11;16.83;;;3.27;;
51987;SDS011;38003;52.012;4.346;2023-03-23T11:01:41;16.30;;;4.10;;
51987;SDS011;38003;52.012;4.346;2023-03-23T11:04:11;13.47;;;3.73;;
51987;SDS011;38003;52.012;4.346;2023-03-23T11:06:38;19.13;;;4.10;;
51987;SDS011;38003;52.012;4.346;2023-03-23T11:09:10;19.00;;;4.10;;
51987;SDS011;38003;52.012;4.346;2023-03-23T11:11:39;19.07;;;3.70;;
51987;SDS011;38003;52.012;4.346;2023-03-23T11:14:14;18.70;;;4.43;;
51987;SDS011;38003;52.012;4.346;2023-03-23T11:16:44;12.63;;;2.83;;
51987;SDS011;38003;52.012;4.346;2023-03-23T11:19:13;12.67;;;3.23;;
51987;SDS011;38003;52.012;4.346;2023-03-23T11:21:40;12.07;;;2.83;;
51987;SDS011;38003;52.012;4.346;2023-03-23T11:24:12;12.43;;;3.07;;
51987;SDS011;38003;52.012;4.346;2023-03-23T11:26:40;12.03;;;3.03;;
51987;SDS011;38003;52.012;4.346;2023-03-23T11:29:10;11.77;;;2.53;;
51987;SDS011;38003;52.012;4.346;2023-03-23T11:31:39;9.27;;;2.53;;
51987;SDS011;38003;52.012;4.346;2023-03-23T11:34:12;12.20;;;2.57;;
51987;SDS011;38003;52.012;4.346;2023-03-23T11:36:41;6.97;;;2.10;;
51987;SDS011;38003;52.012;4.346;2023-03-23T11:39:23;9.57;;;2.80;;
51987;SDS011;38003;52.012;4.346;2023-03-23T11:41:51;11.60;;;2.60;;
51987;SDS011;38003;52.012;4.346;2023-03-23T11:44:19;7.87;;;2.33;;
51987;SDS011;38003;52.012;4.346;2023-03-23T11:46:49;9.00;;;2.30;;
51987;SDS011;38003;52.012;4.346;2023-03-23T11:49:20;9.70;;;3.07;;
51987;SDS011;38003;52.012;4.346;2023-03-23T11:51:50;11.73;;;2.83;;
51987;SDS011;38003;52.012;4.346;2023-03-23T11:54:26;9.93;;;2.47;;
51987;SDS011;38003;52.012;4.346;2023-03-23T11:56:55;8.93;;;2.47;;
51987;SDS011;38003;52.012;4.346;2023-03-23T11:59:26;9.93;;;2.70;;
51987;SDS011;38003;52.012;4.346;2023-03-23T12:01:56;11.10;;;2.60;;
51987;SDS011;38003;52.012;4.346;2023-03-23T12:04:35;8.87;;;2.60;;
51987;SDS011;38003;52.012;4.346;2023-03-23T12:07:09;8.07;;;2.60;;
51987;SDS011;38003;52.012;4.346;2023-03-23T12:09:42;10.37;;;2.33;;
51987;SDS011;38003;52.012;4.346;2023-03-23T12:12:14;8.73;;;2.57;;
51987;SDS011;38003;52.012;4.346;2023-03-23T12:14:46;9.57;;;2.40;;
51987;SDS011;38003;52.012;4.346;2023-03-23T12:17:17;12.20;;;2.43;;
51987;SDS011;38003;52.012;4.346;2023-03-23T12:19:49;12.87;;;2.90;;
51987;SDS011;38003;52.012;4.346;2023-03-23T12:22:21;13.03;;;3.20;;
51987;SDS011;38003;52.012;4.346;2023-03-23T12:24:54;11.30;;;2.80;;
51987;SDS011;38003;52.012;4.346;2023-03-23T12:27:26;10.60;;;2.67;;
51987;SDS011;38003;52.012;4.346;2023-03-23T12:32:44;13.33;;;3.13;;
51987;SDS011;38003;52.012;4.346;2023-03-23T12:35:19;12.80;;;2.97;;
51987;SDS011;38003;52.012;4.346;2023-03-23T12:37:51;9.33;;;2.90;;
51987;SDS011;38003;52.012;4.346;2023-03-23T12:40:23;11.47;;;2.90;;
51987;SDS011;38003;52.012;4.346;2023-03-23T12:42:54;9.17;;;2.70;;
51987;SDS011;38003;52.012;4.346;2023-03-23T12:48:07;9.73;;;2.73;;
51987;SDS011;38003;52.012;4.346;2023-03-23T12:50:39;10.90;;;2.90;;
51987;SDS011;38003;52.012;4.346;2023-03-23T12:53:08;13.70;;;3.00;;
51987;SDS011;38003;52.012;4.346;2023-03-23T12:55:39;11.17;;;2.50;;
51987;SDS011;38003;52.012;4.346;2023-03-23T12:58:09;8.53;;;2.40;;
51987;SDS011;38003;52.012;4.346;2023-03-23T13:00:49;8.97;;;2.30;;
51987;SDS011;38003;52.012;4.346;2023-03-23T13:03:20;10.03;;;3.30;;
51987;SDS011;38003;52.012;4.346;2023-03-23T13:05:52;12.80;;;3.73;;
51987;SDS011;38003;52.012;4.346;2023-03-23T13:08:21;9.37;;;2.63;;
51987;SDS011;38003;52.012;4.346;2023-03-23T13:10:51;12.93;;;3.03;;
51987;SDS011;38003;52.012;4.346;2023-03-23T13:13:20;11.37;;;2.70;;
51987;SDS011;38003;52.012;4.346;2023-03-23T13:15:53;11.70;;;2.20;;
51987;SDS011;38003;52.012;4.346;2023-03-23T13:18:24;14.33;;;3.00;;
51987;SDS011;38003;52.012;4.346;2023-03-23T13:20:57;15.60;;;2.87;;
51987;SDS011;38003;52.012;4.346;2023-03-23T13:23:28;12.87;;;3.00;;
51987;SDS011;38003;52.012;4.346;2023-03-23T13:25:56;14.17;;;3.50;;
51987;SDS011;38003;52.012;4.346;2023-03-23T13:28:25;14.67;;;3.57;;
51987;SDS011;38003;52.012;4.346;2023-03-23T13:30:57;12.53;;;3.13;;
51987;SDS011;38003;52.012;4.346;2023-03-23T13:33:25;10.30;;;3.00;;
51987;SDS011;38003;52.012;4.346;2023-03-23T13:35:52;12.67;;;2.70;;
51987;SDS011;38003;52.012;4.346;2023-03-23T13:38:23;14.10;;;3.17;;
51987;SDS011;38003;52.012;4.346;2023-03-23T13:40:50;14.03;;;3.27;;
51987;SDS011;38003;52.012;4.346;2023-03-23T13:43:25;17.47;;;3.77;;
51987;SDS011;38003;52.012;4.346;2023-03-23T13:45:53;19.90;;;3.87;;
51987;SDS011;38003;52.012;4.346;2023-03-23T13:48:21;12.47;;;3.07;;
51987;SDS011;38003;52.012;4.346;2023-03-23T13:50:50;13.17;;;2.90;;
51987;SDS011;38003;52.012;4.346;2023-03-23T13:53:23;12.10;;;2.97;;
51987;SDS011;38003;52.012;4.346;2023-03-23T13:56:03;11.50;;;2.60;;
51987;SDS011;38003;52.012;4.346;2023-03-23T13:58:31;9.30;;;2.80;;
51987;SDS011;38003;52.012;4.346;2023-03-23T14:01:08;12.17;;;2.97;;
51987;SDS011;38003;52.012;4.346;2023-03-23T14:03:38;11.27;;;2.80;;
51987;SDS011;38003;52.012;4.346;2023-03-23T14:06:05;11.33;;;2.97;;
51987;SDS011;38003;52.012;4.346;2023-03-23T14:08:39;10.90;;;2.97;;
51987;SDS011;38003;52.012;4.346;2023-03-23T14:11:12;14.53;;;2.87;;
51987;SDS011;38003;52.012;4.346;2023-03-23T14:13:41;11.60;;;2.93;;
51987;SDS011;38003;52.012;4.346;2023-03-23T14:16:14;13.93;;;3.40;;
51987;SDS011;38003;52.012;4.346;2023-03-23T14:18:42;10.97;;;2.63;;
51987;SDS011;38003;52.012;4.346;2023-03-23T14:21:15;11.70;;;2.67;;
51987;SDS011;38003;52.012;4.346;2023-03-23T14:23:44;10.33;;;3.07;;
51987;SDS011;38003;52.012;4.346;2023-03-23T14:26:12;13.83;;;2.57;;
51987;SDS011;38003;52.012;4.346;2023-03-23T14:28:41;12.57;;;2.83;;
51987;SDS011;38003;52.012;4.346;2023-03-23T14:31:14;11.60;;;3.70;;
51987;SDS011;38003;52.012;4.346;2023-03-23T14:33:41;13.67;;;3.00;;
51987;SDS011;38003;52.012;4.346;2023-03-23T14:36:09;13.23;;;3.73;;
51987;SDS011;38003;52.012;4.346;2023-03-23T14:38:36;16.30;;;3.03;;
51987;SDS011;38003;52.012;4.346;2023-03-23T14:41:05;11.53;;;3.30;;
51987;SDS011;38003;52.012;4.346;2023-03-23T14:43:33;15.63;;;3.37;;
51987;SDS011;38003;52.012;4.346;2023-03-23T14:46:02;13.07;;;2.70;;
51987;SDS011;38003;52.012;4.346;2023-03-23T14:48:31;10.60;;;2.70;;
51987;SDS011;38003;52.012;4.346;2023-03-23T14:50:59;11.60;;;3.23;;